Shozuimaru — JD3906 — position and weather

sailwx.info

Track history (hours):
 
Tides and Currents Weather Stations Pressure Air Temp Water Temp Dewpoint Dewpoint Depression Visibility Wind Speed Wind Dir Waves Ship Positions

Shozuimaru

Last reported at 2018-Jan-09 04:31 UTC. Time now 2018-Jan-22 13:45 UTC.
Position N 33°15' E 132°01'.
Warning: this ship's position is 13 days out of date.

Length 105 m; draft 6.4 m.

Type: Ship. MMSI: 431006887.

Date/timePositionNaut miles runAvg speedWind from/ knotsBaromVisibWave heightAir tempDewpointWater temp
2018-Jan-09 04:31N 33°15' E 132°01'013.7
2018-Jan-09 04:30N 33°15' E 132°00'610.1
2018-Jan-09 03:58N 33°19' E 131°56'612.4
2018-Jan-09 03:30N 33°19' E 131°49'612.6
2018-Jan-09 03:00N 33°17' E 131°42'1 1.6
2018-Jan-09 02:23N 33°17' E 131°41'0 0.0
2018-Jan-09 01:59N 33°17' E 131°41'0 0.0
2018-Jan-08 23:11N 33°17' E 131°41'0 0.0
2018-Jan-08 22:59N 33°17' E 131°41'0 0.4
2018-Jan-08 22:30N 33°17' E 131°41'3 6.5
2018-Jan-08 21:58N 33°20' E 131°42'0 0.0
2018-Jan-08 13:10N 33°20' E 131°42'0 0.0
2018-Jan-08 12:58N 33°20' E 131°42'0 0.0
2018-Jan-08 11:58N 33°20' E 131°42'0 0.0
2018-Jan-08 11:16N 33°20' E 131°42'0 1.3
2018-Jan-08 10:58N 33°20' E 131°42'612.4
2018-Jan-08 10:30N 33°20' E 131°49'611.9
2018-Jan-08 09:59N 33°19' E 131°57'511.2
2018-Jan-08 09:30N 33°17' E 132°02'1012.9
2018-Jan-08 08:44N 33°08' E 132°08'21411.6
2018-Jan-07 14:19N 33°47' E 136°21'5811.8
2018-Jan-07 09:25N 34°39' E 136°52'614.2
2018-Jan-07 09:01N 34°44' E 136°48'714.3
2018-Jan-07 08:31N 34°51' E 136°46'714.1
2018-Jan-07 08:00N 34°58' E 136°47'1 2.2
2018-Jan-07 07:27N 34°59' E 136°47'0 0.1
2018-Jan-07 06:57N 34°59' E 136°47'3 7.5
2018-Jan-07 06:30N 35°01' E 136°49'0 0.5
2018-Jan-07 05:58N 35°02' E 136°50'0 0.0
2018-Jan-07 05:28N 35°02' E 136°50'0 0.0
2018-Jan-07 04:58N 35°02' E 136°50'0 0.0
2018-Jan-07 04:28N 35°02' E 136°50'0 0.0
2018-Jan-07 03:58N 35°02' E 136°50'0 0.0
2018-Jan-07 03:28N 35°02' E 136°50'0 0.0
2018-Jan-07 02:58N 35°02' E 136°50'0 0.0
2018-Jan-07 02:28N 35°02' E 136°50'0 0.0
2018-Jan-07 01:58N 35°02' E 136°50'0 0.0
2018-Jan-07 01:28N 35°02' E 136°50'0 0.0
2018-Jan-07 00:28N 35°02' E 136°50'0 0.0
2018-Jan-06 23:58N 35°02' E 136°50'0 0.0
2018-Jan-06 23:28N 35°02' E 136°50'0 0.0
2018-Jan-06 22:58N 35°02' E 136°50'0 0.0
2018-Jan-06 22:28N 35°02' E 136°50'0 0.0
2018-Jan-06 21:58N 35°02' E 136°50'1 2.4
2018-Jan-06 21:30N 35°01' E 136°50'3 6.5
2018-Jan-06 21:00N 34°58' E 136°47'0 0.1
2018-Jan-06 20:25N 34°58' E 136°47'0 0.0
2018-Jan-06 19:55N 34°58' E 136°47'0 0.0
2018-Jan-06 19:25N 34°58' E 136°47'0 0.1
2018-Jan-06 18:55N 34°58' E 136°47'0 0.0
2018-Jan-06 18:25N 34°58' E 136°47'0 0.0
2018-Jan-06 17:55N 34°58' E 136°47'0 0.0
2018-Jan-06 17:25N 34°58' E 136°47'0 0.1
2018-Jan-06 16:55N 34°58' E 136°47'0 0.1
2018-Jan-06 16:25N 34°58' E 136°47'0 0.1
2018-Jan-06 15:55N 34°58' E 136°47'0 0.0
2018-Jan-06 15:25N 34°58' E 136°47'0 0.0
2018-Jan-06 14:55N 34°58' E 136°47'0 0.0
2018-Jan-06 14:25N 34°58' E 136°47'0 0.0
2018-Jan-06 13:55N 34°58' E 136°47'0 0.0
2018-Jan-06 13:25N 34°58' E 136°47'0 0.0
2018-Jan-06 12:55N 34°58' E 136°47'0 0.0
2018-Jan-06 12:25N 34°58' E 136°47'0 0.0
2018-Jan-06 11:55N 34°58' E 136°47'0 0.0
2018-Jan-06 11:28N 34°58' E 136°47'0 0.0
2018-Jan-06 10:55N 34°58' E 136°47'0 0.0
2018-Jan-06 10:25N 34°58' E 136°47'0 0.0
2018-Jan-06 09:55N 34°58' E 136°47'0 0.0
2018-Jan-06 09:25N 34°58' E 136°47'0 0.0
2018-Jan-06 08:55N 34°58' E 136°47'0 0.0
2018-Jan-06 08:25N 34°58' E 136°47'0 0.1
2018-Jan-06 07:59N 34°58' E 136°47'5 9.7
2018-Jan-06 07:30N 34°54' E 136°46'612.9
2018-Jan-06 07:00N 34°47' E 136°47'712.9
2018-Jan-06 06:30N 34°42' E 136°51'713.1
2018-Jan-06 06:00N 34°37' E 136°56'612.6
2018-Jan-06 05:30N 34°33' E 137°02'612.4
2018-Jan-06 05:00N 34°33' E 137°10'612.9
2018-Jan-06 04:30N 34°32' E 137°18'2413.4
2018-Jan-06 02:41N 34°33' E 137°47'413.3
2018-Jan-06 02:23N 34°33' E 137°52'513.1
2018-Jan-06 01:58N 34°33' E 137°58'612.9
2018-Jan-06 01:29N 34°33' E 138°06'612.1
2018-Jan-06 00:59N 34°32' E 138°13'612.5
2018-Jan-06 00:30N 34°32' E 138°21'612.6
2018-Jan-06 00:00N 34°33' E 138°28'612.9
2018-Jan-05 23:31N 34°33' E 138°36'713.2
2018-Jan-05 23:00N 34°33' E 138°44'713.7
2018-Jan-05 22:30N 34°32' E 138°52'714.6
2018-Jan-05 22:00N 34°33' E 139°01'714.0
2018-Jan-05 21:31N 34°35' E 139°09'713.8
2018-Jan-05 21:00N 34°36' E 139°18'613.3
2018-Jan-05 20:30N 34°38' E 139°26'713.5
2018-Jan-05 20:00N 34°40' E 139°33'815.2
2018-Jan-05 19:29N 34°44' E 139°41'714.6
2018-Jan-05 19:00N 34°48' E 139°49'914.2
2018-Jan-05 18:23N 34°52' E 139°58'514.6
2018-Jan-05 18:00N 34°54' E 140°04'814.9
2018-Jan-05 17:29N 34°58' E 140°13'715.2
2018-Jan-05 17:00N 35°02' E 140°21'40713.6
2018-Jan-04 11:04N 41°43' E 141°48'  
2018-Jan-02 04:29N 41°46' E 141°13'714.2
2018-Jan-02 04:00N 41°42' E 141°05'714.5
2018-Jan-02 03:30N 41°41' E 140°56'815.4
2018-Jan-02 03:00N 41°43' E 140°45'611.1
2018-Jan-02 02:30N 41°47' E 140°41'2 2.5
2018-Jan-02 01:50N 41°47' E 140°43'0 0.0
2018-Jan-02 01:29N 41°47' E 140°43'0 0.0
2018-Jan-02 00:59N 41°47' E 140°43'0 0.0
2018-Jan-02 00:29N 41°47' E 140°43'0 0.0
2018-Jan-01 23:56N 41°47' E 140°43'0 0.0
2018-Jan-01 23:29N 41°47' E 140°43'0 0.0
2018-Jan-01 22:56N 41°47' E 140°43'0 0.0
2018-Jan-01 22:29N 41°47' E 140°43'0 0.0
2018-Jan-01 21:59N 41°47' E 140°43'0 0.0
2018-Jan-01 21:29N 41°47' E 140°43'0 0.0
2018-Jan-01 20:59N 41°47' E 140°43'0 0.0
2018-Jan-01 20:29N 41°47' E 140°43'0 0.0
2018-Jan-01 19:59N 41°47' E 140°43'0 0.0
2018-Jan-01 19:29N 41°47' E 140°43'0 0.0
2018-Jan-01 18:56N 41°47' E 140°43'0 0.0
2018-Jan-01 18:29N 41°47' E 140°43'0 0.0
2018-Jan-01 17:59N 41°47' E 140°43'0 0.0
2018-Jan-01 17:29N 41°47' E 140°43'0 0.0
2018-Jan-01 14:59N 41°47' E 140°43'0 0.0
2018-Jan-01 14:29N 41°47' E 140°43'0 0.0
2018-Jan-01 13:59N 41°47' E 140°43'0 0.0
2018-Jan-01 13:29N 41°47' E 140°43'0 0.0
2018-Jan-01 12:59N 41°47' E 140°43'0 0.0
2018-Jan-01 11:59N 41°47' E 140°43'0 0.0
2018-Jan-01 11:26N 41°47' E 140°43'0 0.0
2018-Jan-01 10:59N 41°47' E 140°43'0 0.0
2018-Jan-01 10:29N 41°47' E 140°43'0 0.0
2018-Jan-01 09:59N 41°47' E 140°43'0 0.0
2018-Jan-01 09:29N 41°47' E 140°43'0 0.0
2018-Jan-01 08:29N 41°47' E 140°43'0 0.0
2018-Jan-01 07:59N 41°47' E 140°43'0 0.0
2018-Jan-01 07:23N 41°47' E 140°43'0 0.0
2018-Jan-01 06:59N 41°47' E 140°43'0 0.0
2018-Jan-01 05:59N 41°47' E 140°43'0 0.0
2018-Jan-01 05:29N 41°47' E 140°43'0 0.0
2018-Jan-01 04:59N 41°47' E 140°43'0 0.0
2018-Jan-01 03:59N 41°47' E 140°43'0 0.0
2018-Jan-01 03:29N 41°47' E 140°43'0 0.0
2018-Jan-01 02:59N 41°47' E 140°43'0 0.0
2018-Jan-01 02:23N 41°47' E 140°43'0 0.0
2018-Jan-01 01:53N 41°47' E 140°43'0 0.0
2018-Jan-01 01:29N 41°47' E 140°43'0 0.0
2018-Jan-01 00:26N 41°47' E 140°43'3410.0
2017-Dec-31 21:00N 41°19' E 140°18'1611.8
2017-Dec-31 19:38N 41°04' E 140°09'211.8
2017-Dec-31 19:30N 41°02' E 140°09'611.8
2017-Dec-31 18:57N 40°56' E 140°10'511.4
2017-Dec-31 18:31N 40°53' E 140°05'711.7
2017-Dec-31 17:56N 40°49' E 139°57'  
Track history (hours):
 
Tides and Currents Weather Stations Pressure Air Temp Water Temp Dewpoint Dewpoint Depression Visibility Wind Speed Wind Dir Waves Ship Positions

Shozuimaru

Last reported at 2018-Jan-09 04:31 UTC. Time now 2018-Jan-22 13:45 UTC.
Position N 33°15' E 132°01'.
Warning: this ship's position is 13 days out of date.

Length 105 m; draft 6.4 m.

Type: Ship. MMSI: 431006887.

Date/timePositionNaut miles runAvg speedWind from/ knotsBaromVisibWave heightAir tempDewpointWater temp
2018-Jan-09 04:31N 33°15' E 132°01'013.7
2018-Jan-09 04:30N 33°15' E 132°00'610.1
2018-Jan-09 03:58N 33°19' E 131°56'612.4
2018-Jan-09 03:30N 33°19' E 131°49'612.6
2018-Jan-09 03:00N 33°17' E 131°42'1 1.6
2018-Jan-09 02:23N 33°17' E 131°41'0 0.0
2018-Jan-09 01:59N 33°17' E 131°41'0 0.0
2018-Jan-08 23:11N 33°17' E 131°41'0 0.0
2018-Jan-08 22:59N 33°17' E 131°41'0 0.4
2018-Jan-08 22:30N 33°17' E 131°41'3 6.5
2018-Jan-08 21:58N 33°20' E 131°42'0 0.0
2018-Jan-08 13:10N 33°20' E 131°42'0 0.0
2018-Jan-08 12:58N 33°20' E 131°42'0 0.0
2018-Jan-08 11:58N 33°20' E 131°42'0 0.0
2018-Jan-08 11:16N 33°20' E 131°42'0 1.3
2018-Jan-08 10:58N 33°20' E 131°42'612.4
2018-Jan-08 10:30N 33°20' E 131°49'611.9
2018-Jan-08 09:59N 33°19' E 131°57'511.2
2018-Jan-08 09:30N 33°17' E 132°02'1012.9
2018-Jan-08 08:44N 33°08' E 132°08'21411.6
2018-Jan-07 14:19N 33°47' E 136°21'5811.8
2018-Jan-07 09:25N 34°39' E 136°52'614.2
2018-Jan-07 09:01N 34°44' E 136°48'714.3
2018-Jan-07 08:31N 34°51' E 136°46'714.1
2018-Jan-07 08:00N 34°58' E 136°47'1 2.2
2018-Jan-07 07:27N 34°59' E 136°47'0 0.1
2018-Jan-07 06:57N 34°59' E 136°47'3 7.5
2018-Jan-07 06:30N 35°01' E 136°49'0 0.5
2018-Jan-07 05:58N 35°02' E 136°50'0 0.0
2018-Jan-07 05:28N 35°02' E 136°50'0 0.0
2018-Jan-07 04:58N 35°02' E 136°50'0 0.0
2018-Jan-07 04:28N 35°02' E 136°50'0 0.0
2018-Jan-07 03:58N 35°02' E 136°50'0 0.0
2018-Jan-07 03:28N 35°02' E 136°50'0 0.0
2018-Jan-07 02:58N 35°02' E 136°50'0 0.0
2018-Jan-07 02:28N 35°02' E 136°50'0 0.0
2018-Jan-07 01:58N 35°02' E 136°50'0 0.0
2018-Jan-07 01:28N 35°02' E 136°50'0 0.0
2018-Jan-07 00:28N 35°02' E 136°50'0 0.0
2018-Jan-06 23:58N 35°02' E 136°50'0 0.0
2018-Jan-06 23:28N 35°02' E 136°50'0 0.0
2018-Jan-06 22:58N 35°02' E 136°50'0 0.0
2018-Jan-06 22:28N 35°02' E 136°50'0 0.0
2018-Jan-06 21:58N 35°02' E 136°50'1 2.4
2018-Jan-06 21:30N 35°01' E 136°50'3 6.5
2018-Jan-06 21:00N 34°58' E 136°47'0 0.1
2018-Jan-06 20:25N 34°58' E 136°47'0 0.0
2018-Jan-06 19:55N 34°58' E 136°47'0 0.0
2018-Jan-06 19:25N 34°58' E 136°47'0 0.1
2018-Jan-06 18:55N 34°58' E 136°47'0 0.0
2018-Jan-06 18:25N 34°58' E 136°47'0 0.0
2018-Jan-06 17:55N 34°58' E 136°47'0 0.0
2018-Jan-06 17:25N 34°58' E 136°47'0 0.1
2018-Jan-06 16:55N 34°58' E 136°47'0 0.1
2018-Jan-06 16:25N 34°58' E 136°47'0 0.1
2018-Jan-06 15:55N 34°58' E 136°47'0 0.0
2018-Jan-06 15:25N 34°58' E 136°47'0 0.0
2018-Jan-06 14:55N 34°58' E 136°47'0 0.0
2018-Jan-06 14:25N 34°58' E 136°47'0 0.0
2018-Jan-06 13:55N 34°58' E 136°47'0 0.0
2018-Jan-06 13:25N 34°58' E 136°47'0 0.0
2018-Jan-06 12:55N 34°58' E 136°47'0 0.0
2018-Jan-06 12:25N 34°58' E 136°47'0 0.0
2018-Jan-06 11:55N 34°58' E 136°47'0 0.0
2018-Jan-06 11:28N 34°58' E 136°47'0 0.0
2018-Jan-06 10:55N 34°58' E 136°47'0 0.0
2018-Jan-06 10:25N 34°58' E 136°47'0 0.0
2018-Jan-06 09:55N 34°58' E 136°47'0 0.0
2018-Jan-06 09:25N 34°58' E 136°47'0 0.0
2018-Jan-06 08:55N 34°58' E 136°47'0 0.0
2018-Jan-06 08:25N 34°58' E 136°47'0 0.1
2018-Jan-06 07:59N 34°58' E 136°47'5 9.7
2018-Jan-06 07:30N 34°54' E 136°46'612.9
2018-Jan-06 07:00N 34°47' E 136°47'712.9
2018-Jan-06 06:30N 34°42' E 136°51'713.1
2018-Jan-06 06:00N 34°37' E 136°56'612.6
2018-Jan-06 05:30N 34°33' E 137°02'612.4
2018-Jan-06 05:00N 34°33' E 137°10'612.9
2018-Jan-06 04:30N 34°32' E 137°18'2413.4
2018-Jan-06 02:41N 34°33' E 137°47'413.3
2018-Jan-06 02:23N 34°33' E 137°52'513.1
2018-Jan-06 01:58N 34°33' E 137°58'612.9
2018-Jan-06 01:29N 34°33' E 138°06'612.1
2018-Jan-06 00:59N 34°32' E 138°13'612.5
2018-Jan-06 00:30N 34°32' E 138°21'612.6
2018-Jan-06 00:00N 34°33' E 138°28'612.9
2018-Jan-05 23:31N 34°33' E 138°36'713.2
2018-Jan-05 23:00N 34°33' E 138°44'713.7
2018-Jan-05 22:30N 34°32' E 138°52'714.6
2018-Jan-05 22:00N 34°33' E 139°01'714.0
2018-Jan-05 21:31N 34°35' E 139°09'713.8
2018-Jan-05 21:00N 34°36' E 139°18'613.3
2018-Jan-05 20:30N 34°38' E 139°26'713.5
2018-Jan-05 20:00N 34°40' E 139°33'815.2
2018-Jan-05 19:29N 34°44' E 139°41'714.6
2018-Jan-05 19:00N 34°48' E 139°49'914.2
2018-Jan-05 18:23N 34°52' E 139°58'514.6
2018-Jan-05 18:00N 34°54' E 140°04'814.9
2018-Jan-05 17:29N 34°58' E 140°13'715.2
2018-Jan-05 17:00N 35°02' E 140°21'40713.6
2018-Jan-04 11:04N 41°43' E 141°48'  
2018-Jan-02 04:29N 41°46' E 141°13'714.2
2018-Jan-02 04:00N 41°42' E 141°05'714.5
2018-Jan-02 03:30N 41°41' E 140°56'815.4
2018-Jan-02 03:00N 41°43' E 140°45'611.1
2018-Jan-02 02:30N 41°47' E 140°41'2 2.5
2018-Jan-02 01:50N 41°47' E 140°43'0 0.0
2018-Jan-02 01:29N 41°47' E 140°43'0 0.0
2018-Jan-02 00:59N 41°47' E 140°43'0 0.0
2018-Jan-02 00:29N 41°47' E 140°43'0 0.0
2018-Jan-01 23:56N 41°47' E 140°43'0 0.0
2018-Jan-01 23:29N 41°47' E 140°43'0 0.0
2018-Jan-01 22:56N 41°47' E 140°43'0 0.0
2018-Jan-01 22:29N 41°47' E 140°43'0 0.0
2018-Jan-01 21:59N 41°47' E 140°43'0 0.0
2018-Jan-01 21:29N 41°47' E 140°43'0 0.0
2018-Jan-01 20:59N 41°47' E 140°43'0 0.0
2018-Jan-01 20:29N 41°47' E 140°43'0 0.0
2018-Jan-01 19:59N 41°47' E 140°43'0 0.0
2018-Jan-01 19:29N 41°47' E 140°43'0 0.0
2018-Jan-01 18:56N 41°47' E 140°43'0 0.0
2018-Jan-01 18:29N 41°47' E 140°43'0 0.0
2018-Jan-01 17:59N 41°47' E 140°43'0 0.0
2018-Jan-01 17:29N 41°47' E 140°43'0 0.0
2018-Jan-01 14:59N 41°47' E 140°43'0 0.0
2018-Jan-01 14:29N 41°47' E 140°43'0 0.0
2018-Jan-01 13:59N 41°47' E 140°43'0 0.0
2018-Jan-01 13:29N 41°47' E 140°43'0 0.0
2018-Jan-01 12:59N 41°47' E 140°43'0 0.0
2018-Jan-01 11:59N 41°47' E 140°43'0 0.0
2018-Jan-01 11:26N 41°47' E 140°43'0 0.0
2018-Jan-01 10:59N 41°47' E 140°43'0 0.0
2018-Jan-01 10:29N 41°47' E 140°43'0 0.0
2018-Jan-01 09:59N 41°47' E 140°43'0 0.0
2018-Jan-01 09:29N 41°47' E 140°43'0 0.0
2018-Jan-01 08:29N 41°47' E 140°43'0 0.0
2018-Jan-01 07:59N 41°47' E 140°43'0 0.0
2018-Jan-01 07:23N 41°47' E 140°43'0 0.0
2018-Jan-01 06:59N 41°47' E 140°43'0 0.0
2018-Jan-01 05:59N 41°47' E 140°43'0 0.0
2018-Jan-01 05:29N 41°47' E 140°43'0 0.0
2018-Jan-01 04:59N 41°47' E 140°43'0 0.0
2018-Jan-01 03:59N 41°47' E 140°43'0 0.0
2018-Jan-01 03:29N 41°47' E 140°43'0 0.0
2018-Jan-01 02:59N 41°47' E 140°43'0 0.0
2018-Jan-01 02:23N 41°47' E 140°43'0 0.0
2018-Jan-01 01:53N 41°47' E 140°43'0 0.0
2018-Jan-01 01:29N 41°47' E 140°43'0 0.0
2018-Jan-01 00:26N 41°47' E 140°43'3410.0
2017-Dec-31 21:00N 41°19' E 140°18'1611.8
2017-Dec-31 19:38N 41°04' E 140°09'211.8
2017-Dec-31 19:30N 41°02' E 140°09'611.8
2017-Dec-31 18:57N 40°56' E 140°10'511.4
2017-Dec-31 18:31N 40°53' E 140°05'711.7
2017-Dec-31 17:56N 40°49' E 139°57'  

Dump ship's entire track history